sensor_id;sensor_type;location;lat;lon;timestamp;temperature;humidity
59067;DHT22;44854;50.838;4.438;2023-06-22T04:03:27;21.00;99.90
59067;DHT22;44854;50.838;4.438;2023-06-22T04:05:52;21.00;99.90
59067;DHT22;44854;50.838;4.438;2023-06-22T04:08:18;21.10;99.90
59067;DHT22;44854;50.838;4.438;2023-06-22T04:10:43;21.10;99.90
59067;DHT22;44854;50.838;4.438;2023-06-22T04:13:10;21.20;99.90
59067;DHT22;44854;50.838;4.438;2023-06-22T04:15:35;21.30;99.90
59067;DHT22;44854;50.838;4.438;2023-06-22T04:18:01;21.20;99.90
59067;DHT22;44854;50.838;4.438;2023-06-22T04:20:26;21.20;99.90
59067;DHT22;44854;50.838;4.438;2023-06-22T04:22:53;21.20;99.90
59067;DHT22;44854;50.838;4.438;2023-06-22T04:25:19;21.20;99.90
59067;DHT22;44854;50.838;4.438;2023-06-22T04:27:45;21.20;99.90
59067;DHT22;44854;50.838;4.438;2023-06-22T04:30:11;21.10;99.90
59067;DHT22;44854;50.838;4.438;2023-06-22T04:32:37;21.00;99.90
59067;DHT22;44854;50.838;4.438;2023-06-22T04:35:03;21.00;99.90
59067;DHT22;44854;50.838;4.438;2023-06-22T04:37:30;21.10;99.90
59067;DHT22;44854;50.838;4.438;2023-06-22T04:39:55;21.00;99.90
59067;DHT22;44854;50.838;4.438;2023-06-22T04:42:21;21.10;99.90
59067;DHT22;44854;50.838;4.438;2023-06-22T04:44:47;21.00;99.90
59067;DHT22;44854;50.838;4.438;2023-06-22T04:47:12;21.10;99.90
59067;DHT22;44854;50.838;4.438;2023-06-22T04:49:38;21.00;99.90
59067;DHT22;44854;50.838;4.438;2023-06-22T04:52:06;21.00;99.90
59067;DHT22;44854;50.838;4.438;2023-06-22T04:54:32;21.10;99.90
59067;DHT22;44854;50.838;4.438;2023-06-22T04:57:07;21.10;99.90
59067;DHT22;44854;50.838;4.438;2023-06-22T04:59:36;21.00;99.90
59067;DHT22;44854;50.838;4.438;2023-06-22T05:02:04;21.10;99.90
59067;DHT22;44854;50.838;4.438;2023-06-22T05:04:31;21.10;99.90
59067;DHT22;44854;50.838;4.438;2023-06-22T05:06:57;21.00;99.90
59067;DHT22;44854;50.838;4.438;2023-06-22T05:09:23;21.20;99.90
59067;DHT22;44854;50.838;4.438;2023-06-22T05:11:50;21.10;99.90
59067;DHT22;44854;50.838;4.438;2023-06-22T05:14:15;21.00;99.90
59067;DHT22;44854;50.838;4.438;2023-06-22T05:16:42;20.90;99.90
59067;DHT22;44854;50.838;4.438;2023-06-22T05:19:07;20.80;99.90
59067;DHT22;44854;50.838;4.438;2023-06-22T05:21:33;20.80;99.90
59067;DHT22;44854;50.838;4.438;2023-06-22T05:23:59;20.80;99.90
59067;DHT22;44854;50.838;4.438;2023-06-22T05:26:28;20.70;99.90
59067;DHT22;44854;50.838;4.438;2023-06-22T05:28:54;20.80;99.90
59067;DHT22;44854;50.838;4.438;2023-06-22T05:31:20;20.90;99.90
59067;DHT22;44854;50.838;4.438;2023-06-22T05:33:46;20.90;99.90
59067;DHT22;44854;50.838;4.438;2023-06-22T05:36:12;20.70;99.90
59067;DHT22;44854;50.838;4.438;2023-06-22T05:38:40;20.70;99.90
59067;DHT22;44854;50.838;4.438;2023-06-22T05:41:06;20.60;99.90
59067;DHT22;44854;50.838;4.438;2023-06-22T05:43:32;20.60;99.90
59067;DHT22;44854;50.838;4.438;2023-06-22T05:45:57;20.60;99.90
59067;DHT22;44854;50.838;4.438;2023-06-22T05:48:23;20.60;99.90
59067;DHT22;44854;50.838;4.438;2023-06-22T05:50:49;20.50;99.90
59067;DHT22;44854;50.838;4.438;2023-06-22T05:53:14;20.60;99.90
59067;DHT22;44854;50.838;4.438;2023-06-22T05:55:40;20.50;99.90
59067;DHT22;44854;50.838;4.438;2023-06-22T05:58:06;20.60;99.90
59067;DHT22;44854;50.838;4.438;2023-06-22T06:00:31;20.60;99.90
59067;DHT22;44854;50.838;4.438;2023-06-22T06:02:57;20.60;99.90
59067;DHT22;44854;50.838;4.438;2023-06-22T06:05:28;20.60;99.90
59067;DHT22;44854;50.838;4.438;2023-06-22T06:07:54;20.70;99.90
59067;DHT22;44854;50.838;4.438;2023-06-22T06:10:19;20.70;99.90
59067;DHT22;44854;50.838;4.438;2023-06-22T06:12:45;20.70;99.90
59067;DHT22;44854;50.838;4.438;2023-06-22T06:15:11;20.70;99.90
59067;DHT22;44854;50.838;4.438;2023-06-22T06:17:44;20.80;99.90
59067;DHT22;44854;50.838;4.438;2023-06-22T06:20:10;20.80;99.90
59067;DHT22;44854;50.838;4.438;2023-06-22T06:22:35;21.00;99.90
59067;DHT22;44854;50.838;4.438;2023-06-22T06:25:01;21.00;99.90
59067;DHT22;44854;50.838;4.438;2023-06-22T06:27:26;21.10;99.90
59067;DHT22;44854;50.838;4.438;2023-06-22T06:29:54;21.10;99.90
59067;DHT22;44854;50.838;4.438;2023-06-22T06:32:20;21.20;99.90
59067;DHT22;44854;50.838;4.438;2023-06-22T06:34:45;21.20;99.90
59067;DHT22;44854;50.838;4.438;2023-06-22T06:37:10;21.30;99.90
59067;DHT22;44854;50.838;4.438;2023-06-22T06:39:36;21.30;99.90
59067;DHT22;44854;50.838;4.438;2023-06-22T06:42:02;21.30;99.90
59067;DHT22;44854;50.838;4.438;2023-06-22T06:44:27;21.50;99.90
59067;DHT22;44854;50.838;4.438;2023-06-22T06:46:53;21.40;99.90
59067;DHT22;44854;50.838;4.438;2023-06-22T06:49:19;21.30;99.90
59067;DHT22;44854;50.838;4.438;2023-06-22T06:51:45;21.30;99.90
59067;DHT22;44854;50.838;4.438;2023-06-22T06:54:10;21.40;99.90
59067;DHT22;44854;50.838;4.438;2023-06-22T06:56:36;21.40;99.90
59067;DHT22;44854;50.838;4.438;2023-06-22T06:59:01;21.70;99.90
59067;DHT22;44854;50.838;4.438;2023-06-22T07:01:27;21.70;99.90
59067;DHT22;44854;50.838;4.438;2023-06-22T07:03:52;21.80;99.90
59067;DHT22;44854;50.838;4.438;2023-06-22T07:06:19;22.00;99.90
59067;DHT22;44854;50.838;4.438;2023-06-22T07:08:44;21.90;99.90
59067;DHT22;44854;50.838;4.438;2023-06-22T07:11:10;22.00;99.90
59067;DHT22;44854;50.838;4.438;2023-06-22T07:13:38;21.90;99.90
59067;DHT22;44854;50.838;4.438;2023-06-22T07:16:04;21.80;99.90
59067;DHT22;44854;50.838;4.438;2023-06-22T07:18:29;21.80;99.90
59067;DHT22;44854;50.838;4.438;2023-06-22T07:20:55;21.90;99.90
59067;DHT22;44854;50.838;4.438;2023-06-22T07:23:21;21.90;99.90
59067;DHT22;44854;50.838;4.438;2023-06-22T07:25:46;22.20;99.90
59067;DHT22;44854;50.838;4.438;2023-06-22T07:28:12;22.20;99.90
59067;DHT22;44854;50.838;4.438;2023-06-22T07:30:38;22.40;99.90
59067;DHT22;44854;50.838;4.438;2023-06-22T07:33:03;22.50;99.90
59067;DHT22;44854;50.838;4.438;2023-06-22T07:35:31;22.50;99.90
59067;DHT22;44854;50.838;4.438;2023-06-22T07:37:57;22.60;99.90
59067;DHT22;44854;50.838;4.438;2023-06-22T07:40:23;22.50;99.90
59067;DHT22;44854;50.838;4.438;2023-06-22T07:42:48;22.20;99.90
59067;DHT22;44854;50.838;4.438;2023-06-22T07:45:17;22.30;99.90
59067;DHT22;44854;50.838;4.438;2023-06-22T07:47:42;22.00;99.90
59067;DHT22;44854;50.838;4.438;2023-06-22T07:50:08;22.20;99.90
59067;DHT22;44854;50.838;4.438;2023-06-22T07:52:34;22.20;99.90
59067;DHT22;44854;50.838;4.438;2023-06-22T07:54:59;22.30;99.90
59067;DHT22;44854;50.838;4.438;2023-06-22T07:57:25;22.30;99.90
59067;DHT22;44854;50.838;4.438;2023-06-22T08:00:02;22.30;99.90
59067;DHT22;44854;50.838;4.438;2023-06-22T08:02:29;22.10;99.90
59067;DHT22;44854;50.838;4.438;2023-06-22T08:04:55;22.00;99.90
59067;DHT22;44854;50.838;4.438;2023-06-22T08:07:20;21.90;99.90
59067;DHT22;44854;50.838;4.438;2023-06-22T08:09:47;21.90;99.90
59067;DHT22;44854;50.838;4.438;2023-06-22T08:12:13;21.90;99.90
59067;DHT22;44854;50.838;4.438;2023-06-22T08:14:39;22.00;99.90
59067;DHT22;44854;50.838;4.438;2023-06-22T08:17:04;22.00;99.90
59067;DHT22;44854;50.838;4.438;2023-06-22T08:19:30;22.00;99.90
59067;DHT22;44854;50.838;4.438;2023-06-22T08:21:56;22.00;99.90
59067;DHT22;44854;50.838;4.438;2023-06-22T08:24:22;22.00;99.90
59067;DHT22;44854;50.838;4.438;2023-06-22T08:26:49;22.00;99.90
59067;DHT22;44854;50.838;4.438;2023-06-22T08:29:15;21.90;99.90
59067;DHT22;44854;50.838;4.438;2023-06-22T08:31:40;22.00;99.90
59067;DHT22;44854;50.838;4.438;2023-06-22T08:34:06;22.10;99.90
59067;DHT22;44854;50.838;4.438;2023-06-22T08:36:31;22.10;99.90
59067;DHT22;44854;50.838;4.438;2023-06-22T08:39:00;22.20;99.90
59067;DHT22;44854;50.838;4.438;2023-06-22T08:41:28;22.00;99.90
59067;DHT22;44854;50.838;4.438;2023-06-22T08:43:53;22.10;99.90
59067;DHT22;44854;50.838;4.438;2023-06-22T08:46:19;21.90;99.90
59067;DHT22;44854;50.838;4.438;2023-06-22T08:48:48;21.90;99.90
59067;DHT22;44854;50.838;4.438;2023-06-22T08:51:15;21.90;99.90
59067;DHT22;44854;50.838;4.438;2023-06-22T08:53:41;21.90;99.90
59067;DHT22;44854;50.838;4.438;2023-06-22T08:56:06;21.80;99.90
59067;DHT22;44854;50.838;4.438;2023-06-22T08:58:32;21.80;99.90
59067;DHT22;44854;50.838;4.438;2023-06-22T09:00:58;21.60;99.90
59067;DHT22;44854;50.838;4.438;2023-06-22T09:03:26;21.60;99.90
59067;DHT22;44854;50.838;4.438;2023-06-22T09:05:51;21.60;99.90
59067;DHT22;44854;50.838;4.438;2023-06-22T09:08:17;21.80;99.90
59067;DHT22;44854;50.838;4.438;2023-06-22T09:10:42;21.90;99.90
59067;DHT22;44854;50.838;4.438;2023-06-22T09:13:08;21.80;99.90
59067;DHT22;44854;50.838;4.438;2023-06-22T09:15:34;21.80;99.90
59067;DHT22;44854;50.838;4.438;2023-06-22T09:18:00;21.90;99.90
59067;DHT22;44854;50.838;4.438;2023-06-22T09:20:26;22.00;99.90
59067;DHT22;44854;50.838;4.438;2023-06-22T09:22:51;22.10;99.90
59067;DHT22;44854;50.838;4.438;2023-06-22T09:25:17;22.00;99.90
59067;DHT22;44854;50.838;4.438;2023-06-22T09:27:43;22.00;99.90
59067;DHT22;44854;50.838;4.438;2023-06-22T09:30:09;22.00;99.90
59067;DHT22;44854;50.838;4.438;2023-06-22T09:32:35;21.90;99.90
59067;DHT22;44854;50.838;4.438;2023-06-22T09:35:02;22.00;99.90
59067;DHT22;44854;50.838;4.438;2023-06-22T09:37:27;22.00;99.90
59067;DHT22;44854;50.838;4.438;2023-06-22T09:39:53;21.90;99.90
59067;DHT22;44854;50.838;4.438;2023-06-22T09:42:18;21.90;99.90
59067;DHT22;44854;50.838;4.438;2023-06-22T09:44:44;21.70;99.90
59067;DHT22;44854;50.838;4.438;2023-06-22T09:47:09;21.60;99.90
59067;DHT22;44854;50.838;4.438;2023-06-22T09:49:35;21.20;99.90
59067;DHT22;44854;50.838;4.438;2023-06-22T09:52:00;20.60;99.90
59067;DHT22;44854;50.838;4.438;2023-06-22T09:54:26;20.40;99.90
59067;DHT22;44854;50.838;4.438;2023-06-22T09:56:51;20.20;99.90
59067;DHT22;44854;50.838;4.438;2023-06-22T09:59:17;20.20;99.90
59067;DHT22;44854;50.838;4.438;2023-06-22T10:01:42;20.20;99.90
59067;DHT22;44854;50.838;4.438;2023-06-22T10:04:08;20.20;99.90
59067;DHT22;44854;50.838;4.438;2023-06-22T10:06:33;20.20;99.90
59067;DHT22;44854;50.838;4.438;2023-06-22T10:08:59;20.30;99.90
59067;DHT22;44854;50.838;4.438;2023-06-22T10:11:24;20.30;99.90
59067;DHT22;44854;50.838;4.438;2023-06-22T10:13:54;20.20;99.90
59067;DHT22;44854;50.838;4.438;2023-06-22T10:16:20;20.10;99.90
59067;DHT22;44854;50.838;4.438;2023-06-22T10:18:45;20.20;99.90
59067;DHT22;44854;50.838;4.438;2023-06-22T10:21:11;20.20;99.90
59067;DHT22;44854;50.838;4.438;2023-06-22T10:23:37;20.10;99.90
59067;DHT22;44854;50.838;4.438;2023-06-22T10:26:02;20.10;99.90
59067;DHT22;44854;50.838;4.438;2023-06-22T10:28:27;20.10;99.90
59067;DHT22;44854;50.838;4.438;2023-06-22T10:30:53;20.10;99.90
59067;DHT22;44854;50.838;4.438;2023-06-22T10:33:19;20.20;99.90
59067;DHT22;44854;50.838;4.438;2023-06-22T10:35:45;20.10;99.90
59067;DHT22;44854;50.838;4.438;2023-06-22T10:38:11;20.10;99.90
59067;DHT22;44854;50.838;4.438;2023-06-22T10:40:36;20.10;99.90
59067;DHT22;44854;50.838;4.438;2023-06-22T10:43:02;20.10;99.90
59067;DHT22;44854;50.838;4.438;2023-06-22T10:45:27;20.20;99.90
59067;DHT22;44854;50.838;4.438;2023-06-22T10:47:53;20.30;99.90
59067;DHT22;44854;50.838;4.438;2023-06-22T10:50:19;20.20;99.90
59067;DHT22;44854;50.838;4.438;2023-06-22T10:52:45;20.20;99.90
59067;DHT22;44854;50.838;4.438;2023-06-22T10:55:11;20.10;99.90
59067;DHT22;44854;50.838;4.438;2023-06-22T10:57:36;20.20;99.90
59067;DHT22;44854;50.838;4.438;2023-06-22T11:00:02;20.30;99.90
59067;DHT22;44854;50.838;4.438;2023-06-22T11:02:31;20.20;99.90
59067;DHT22;44854;50.838;4.438;2023-06-22T11:04:56;20.20;99.90
59067;DHT22;44854;50.838;4.438;2023-06-22T11:07:22;20.20;99.90
59067;DHT22;44854;50.838;4.438;2023-06-22T11:09:47;20.20;99.90
59067;DHT22;44854;50.838;4.438;2023-06-22T11:12:13;20.10;99.90
59067;DHT22;44854;50.838;4.438;2023-06-22T11:14:38;19.80;99.90
59067;DHT22;44854;50.838;4.438;2023-06-22T11:17:04;19.90;99.90
59067;DHT22;44854;50.838;4.438;2023-06-22T11:19:30;20.00;99.90
59067;DHT22;44854;50.838;4.438;2023-06-22T11:21:55;20.10;99.90
59067;DHT22;44854;50.838;4.438;2023-06-22T11:24:21;20.10;99.90
59067;DHT22;44854;50.838;4.438;2023-06-22T11:26:47;20.30;99.90
59067;DHT22;44854;50.838;4.438;2023-06-22T11:29:12;20.30;99.90
59067;DHT22;44854;50.838;4.438;2023-06-22T11:31:38;20.30;99.90
59067;DHT22;44854;50.838;4.438;2023-06-22T11:34:03;20.20;99.90
59067;DHT22;44854;50.838;4.438;2023-06-22T11:36:29;20.00;99.90
59067;DHT22;44854;50.838;4.438;2023-06-22T11:38:58;20.00;99.90
59067;DHT22;44854;50.838;4.438;2023-06-22T11:41:23;20.20;99.90
59067;DHT22;44854;50.838;4.438;2023-06-22T11:43:49;20.10;99.90
59067;DHT22;44854;50.838;4.438;2023-06-22T11:46:14;20.30;99.90
59067;DHT22;44854;50.838;4.438;2023-06-22T11:48:40;20.40;99.90
59067;DHT22;44854;50.838;4.438;2023-06-22T11:51:08;20.40;99.90
59067;DHT22;44854;50.838;4.438;2023-06-22T11:53:34;20.40;99.90
59067;DHT22;44854;50.838;4.438;2023-06-22T11:56:00;20.40;99.90
59067;DHT22;44854;50.838;4.438;2023-06-22T11:58:26;20.20;99.90
59067;DHT22;44854;50.838;4.438;2023-06-22T12:00:51;20.20;99.90
59067;DHT22;44854;50.838;4.438;2023-06-22T12:03:17;20.00;99.90
59067;DHT22;44854;50.838;4.438;2023-06-22T12:05:43;20.10;99.90
59067;DHT22;44854;50.838;4.438;2023-06-22T12:08:09;20.20;99.90
59067;DHT22;44854;50.838;4.438;2023-06-22T12:10:34;20.20;99.90
59067;DHT22;44854;50.838;4.438;2023-06-22T12:13:00;20.10;99.90
59067;DHT22;44854;50.838;4.438;2023-06-22T12:15:26;20.00;99.90
59067;DHT22;44854;50.838;4.438;2023-06-22T12:17:52;20.10;99.90
59067;DHT22;44854;50.838;4.438;2023-06-22T12:20:17;20.10;99.90
59067;DHT22;44854;50.838;4.438;2023-06-22T12:22:43;20.00;99.90
59067;DHT22;44854;50.838;4.438;2023-06-22T12:25:09;20.00;99.90
59067;DHT22;44854;50.838;4.438;2023-06-22T12:27:37;19.90;99.90
59067;DHT22;44854;50.838;4.438;2023-06-22T12:30:03;19.80;99.90
59067;DHT22;44854;50.838;4.438;2023-06-22T12:32:29;19.80;99.90
59067;DHT22;44854;50.838;4.438;2023-06-22T12:34:55;19.90;99.90
59067;DHT22;44854;50.838;4.438;2023-06-22T12:37:21;19.90;99.90
59067;DHT22;44854;50.838;4.438;2023-06-22T12:39:47;19.90;99.90
59067;DHT22;44854;50.838;4.438;2023-06-22T12:42:12;19.80;99.90
59067;DHT22;44854;50.838;4.438;2023-06-22T12:44:38;19.80;99.90
59067;DHT22;44854;50.838;4.438;2023-06-22T12:47:04;19.90;99.90
59067;DHT22;44854;50.838;4.438;2023-06-22T12:49:30;20.00;99.90
59067;DHT22;44854;50.838;4.438;2023-06-22T12:51:56;20.00;99.90
59067;DHT22;44854;50.838;4.438;2023-06-22T12:54:21;20.00;99.90
59067;DHT22;44854;50.838;4.438;2023-06-22T12:56:47;19.90;99.90
59067;DHT22;44854;50.838;4.438;2023-06-22T12:59:12;19.90;99.90
59067;DHT22;44854;50.838;4.438;2023-06-22T13:01:38;20.00;99.90
59067;DHT22;44854;50.838;4.438;2023-06-22T13:04:03;20.00;99.90
59067;DHT22;44854;50.838;4.438;2023-06-22T13:06:29;19.80;99.90
59067;DHT22;44854;50.838;4.438;2023-06-22T13:08:58;19.90;99.90
59067;DHT22;44854;50.838;4.438;2023-06-22T13:11:24;19.80;99.90
59067;DHT22;44854;50.838;4.438;2023-06-22T13:13:49;19.80;99.90
59067;DHT22;44854;50.838;4.438;2023-06-22T13:16:14;19.80;99.90
59067;DHT22;44854;50.838;4.438;2023-06-22T13:18:40;19.70;99.90
59067;DHT22;44854;50.838;4.438;2023-06-22T13:21:06;19.70;99.90
59067;DHT22;44854;50.838;4.438;2023-06-22T13:23:31;19.60;99.90
59067;DHT22;44854;50.838;4.438;2023-06-22T13:25:57;19.60;99.90
59067;DHT22;44854;50.838;4.438;2023-06-22T13:28:23;19.50;99.90
59067;DHT22;44854;50.838;4.438;2023-06-22T13:30:49;19.40;99.90
59067;DHT22;44854;50.838;4.438;2023-06-22T13:33:14;19.40;99.90
59067;DHT22;44854;50.838;4.438;2023-06-22T13:35:40;19.40;99.90
59067;DHT22;44854;50.838;4.438;2023-06-22T13:38:08;19.50;99.90
59067;DHT22;44854;50.838;4.438;2023-06-22T13:40:34;19.50;99.90
59067;DHT22;44854;50.838;4.438;2023-06-22T13:42:59;19.50;99.90
59067;DHT22;44854;50.838;4.438;2023-06-22T13:45:26;19.50;99.90
59067;DHT22;44854;50.838;4.438;2023-06-22T13:47:51;19.30;99.90
59067;DHT22;44854;50.838;4.438;2023-06-22T13:50:17;19.20;99.90
59067;DHT22;44854;50.838;4.438;2023-06-22T13:52:42;19.30;99.90
59067;DHT22;44854;50.838;4.438;2023-06-22T13:55:08;19.20;99.90
59067;DHT22;44854;50.838;4.438;2023-06-22T13:57:35;19.20;99.90
59067;DHT22;44854;50.838;4.438;2023-06-22T14:00:01;19.30;99.90
59067;DHT22;44854;50.838;4.438;2023-06-22T14:02:27;19.30;99.90
59067;DHT22;44854;50.838;4.438;2023-06-22T14:04:53;19.30;99.90
59067;DHT22;44854;50.838;4.438;2023-06-22T14:07:18;19.30;99.90
59067;DHT22;44854;50.838;4.438;2023-06-22T14:09:46;19.10;99.90
59067;DHT22;44854;50.838;4.438;2023-06-22T14:12:12;19.10;99.90
59067;DHT22;44854;50.838;4.438;2023-06-22T14:14:37;19.00;99.90
59067;DHT22;44854;50.838;4.438;2023-06-22T14:17:03;19.10;99.90
59067;DHT22;44854;50.838;4.438;2023-06-22T14:19:29;19.10;99.90
59067;DHT22;44854;50.838;4.438;2023-06-22T14:21:54;19.10;99.90
59067;DHT22;44854;50.838;4.438;2023-06-22T14:24:20;18.90;99.90
59067;DHT22;44854;50.838;4.438;2023-06-22T14:26:46;19.10;99.90
59067;DHT22;44854;50.838;4.438;2023-06-22T14:29:11;19.10;99.90
59067;DHT22;44854;50.838;4.438;2023-06-22T14:31:37;19.10;99.90
59067;DHT22;44854;50.838;4.438;2023-06-22T14:34:04;19.10;99.90
59067;DHT22;44854;50.838;4.438;2023-06-22T14:36:36;19.10;99.90
59067;DHT22;44854;50.838;4.438;2023-06-22T14:39:02;19.10;99.90
59067;DHT22;44854;50.838;4.438;2023-06-22T14:41:29;19.00;99.90
59067;DHT22;44854;50.838;4.438;2023-06-22T14:43:54;19.10;99.90
59067;DHT22;44854;50.838;4.438;2023-06-22T14:46:20;19.20;99.90
59067;DHT22;44854;50.838;4.438;2023-06-22T14:48:45;19.20;99.90
59067;DHT22;44854;50.838;4.438;2023-06-22T14:51:11;19.20;99.90
59067;DHT22;44854;50.838;4.438;2023-06-22T14:53:37;19.00;99.90
59067;DHT22;44854;50.838;4.438;2023-06-22T14:56:02;19.00;99.90
59067;DHT22;44854;50.838;4.438;2023-06-22T14:58:29;19.00;99.90
59067;DHT22;44854;50.838;4.438;2023-06-22T15:01:01;18.90;99.90
59067;DHT22;44854;50.838;4.438;2023-06-22T15:03:27;18.90;99.90
59067;DHT22;44854;50.838;4.438;2023-06-22T15:05:54;18.80;99.90
59067;DHT22;44854;50.838;4.438;2023-06-22T15:08:20;18.90;99.90
59067;DHT22;44854;50.838;4.438;2023-06-22T15:10:46;19.00;99.90
59067;DHT22;44854;50.838;4.438;2023-06-22T15:13:11;19.20;99.90
59067;DHT22;44854;50.838;4.438;2023-06-22T15:15:37;19.20;99.90
59067;DHT22;44854;50.838;4.438;2023-06-22T15:18:02;19.20;99.90
59067;DHT22;44854;50.838;4.438;2023-06-22T15:20:28;19.20;99.90
59067;DHT22;44854;50.838;4.438;2023-06-22T15:22:53;19.20;99.90
59067;DHT22;44854;50.838;4.438;2023-06-22T15:25:20;19.30;99.90
59067;DHT22;44854;50.838;4.438;2023-06-22T15:27:45;19.40;99.90
59067;DHT22;44854;50.838;4.438;2023-06-22T15:30:11;19.50;99.90
59067;DHT22;44854;50.838;4.438;2023-06-22T15:32:36;19.50;99.90
59067;DHT22;44854;50.838;4.438;2023-06-22T15:35:02;19.50;99.90
59067;DHT22;44854;50.838;4.438;2023-06-22T15:37:28;19.60;99.90
59067;DHT22;44854;50.838;4.438;2023-06-22T15:39:54;19.50;99.90
59067;DHT22;44854;50.838;4.438;2023-06-22T15:42:21;19.50;99.90
59067;DHT22;44854;50.838;4.438;2023-06-22T15:44:47;19.50;99.90
59067;DHT22;44854;50.838;4.438;2023-06-22T15:47:12;19.50;99.90
59067;DHT22;44854;50.838;4.438;2023-06-22T15:49:38;19.50;99.90
59067;DHT22;44854;50.838;4.438;2023-06-22T15:52:04;19.50;99.90
59067;DHT22;44854;50.838;4.438;2023-06-22T15:54:30;19.60;99.90
59067;DHT22;44854;50.838;4.438;2023-06-22T15:56:55;19.60;99.90
59067;DHT22;44854;50.838;4.438;2023-06-22T15:59:21;19.50;99.90
59067;DHT22;44854;50.838;4.438;2023-06-22T16:01:46;19.50;99.90
59067;DHT22;44854;50.838;4.438;2023-06-22T16:04:12;19.60;99.90
59067;DHT22;44854;50.838;4.438;2023-06-22T16:06:37;19.50;99.90
59067;DHT22;44854;50.838;4.438;2023-06-22T16:09:03;19.50;99.90
59067;DHT22;44854;50.838;4.438;2023-06-22T16:11:30;19.50;99.90
59067;DHT22;44854;50.838;4.438;2023-06-22T16:13:55;19.50;99.90
59067;DHT22;44854;50.838;4.438;2023-06-22T16:16:21;19.50;99.90
59067;DHT22;44854;50.838;4.438;2023-06-22T16:18:46;19.50;99.90
59067;DHT22;44854;50.838;4.438;2023-06-22T16:21:12;19.50;99.90
59067;DHT22;44854;50.838;4.438;2023-06-22T16:23:38;19.60;99.90
59067;DHT22;44854;50.838;4.438;2023-06-22T16:26:03;19.60;99.90
59067;DHT22;44854;50.838;4.438;2023-06-22T16:28:29;19.60;99.90
59067;DHT22;44854;50.838;4.438;2023-06-22T16:30:54;19.60;99.90
59067;DHT22;44854;50.838;4.438;2023-06-22T16:33:20;19.60;99.90
59067;DHT22;44854;50.838;4.438;2023-06-22T16:35:45;19.60;99.90
59067;DHT22;44854;50.838;4.438;2023-06-22T16:38:11;19.50;99.90
59067;DHT22;44854;50.838;4.438;2023-06-22T16:40:37;19.60;99.90
59067;DHT22;44854;50.838;4.438;2023-06-22T16:43:02;19.80;99.90
59067;DHT22;44854;50.838;4.438;2023-06-22T16:45:28;19.80;99.90
59067;DHT22;44854;50.838;4.438;2023-06-22T16:47:53;19.90;99.90
59067;DHT22;44854;50.838;4.438;2023-06-22T16:50:19;19.70;99.90
59067;DHT22;44854;50.838;4.438;2023-06-22T16:52:45;19.70;99.90
59067;DHT22;44854;50.838;4.438;2023-06-22T16:55:12;19.80;99.90
59067;DHT22;44854;50.838;4.438;2023-06-22T16:57:38;19.70;99.90
59067;DHT22;44854;50.838;4.438;2023-06-22T17:00:03;19.70;99.90
59067;DHT22;44854;50.838;4.438;2023-06-22T17:02:35;19.70;99.90
59067;DHT22;44854;50.838;4.438;2023-06-22T17:05:03;19.60;99.90
59067;DHT22;44854;50.838;4.438;2023-06-22T17:07:29;19.80;99.90
59067;DHT22;44854;50.838;4.438;2023-06-22T17:09:57;19.70;99.90
59067;DHT22;44854;50.838;4.438;2023-06-22T17:12:22;19.70;99.90
59067;DHT22;44854;50.838;4.438;2023-06-22T17:14:50;19.70;99.90
59067;DHT22;44854;50.838;4.438;2023-06-22T17:17:16;19.80;99.90
59067;DHT22;44854;50.838;4.438;2023-06-22T17:19:49;19.80;99.90
59067;DHT22;44854;50.838;4.438;2023-06-22T17:22:16;19.80;99.90
59067;DHT22;44854;50.838;4.438;2023-06-22T17:24:42;19.90;99.90
59067;DHT22;44854;50.838;4.438;2023-06-22T17:27:08;19.80;99.90
59067;DHT22;44854;50.838;4.438;2023-06-22T17:29:34;19.90;99.90
59067;DHT22;44854;50.838;4.438;2023-06-22T17:32:03;19.90;99.90
59067;DHT22;44854;50.838;4.438;2023-06-22T17:34:30;20.00;99.90
59067;DHT22;44854;50.838;4.438;2023-06-22T17:36:57;20.10;99.90
59067;DHT22;44854;50.838;4.438;2023-06-22T17:39:26;20.20;99.90
59067;DHT22;44854;50.838;4.438;2023-06-22T17:41:57;20.30;99.90
59067;DHT22;44854;50.838;4.438;2023-06-22T17:44:24;20.30;99.90
59067;DHT22;44854;50.838;4.438;2023-06-22T17:46:53;20.30;99.90
59067;DHT22;44854;50.838;4.438;2023-06-22T17:49:20;20.20;99.90
59067;DHT22;44854;50.838;4.438;2023-06-22T17:51:50;20.20;99.90
59067;DHT22;44854;50.838;4.438;2023-06-22T17:54:16;20.10;99.90
59067;DHT22;44854;50.838;4.438;2023-06-22T17:56:41;20.10;99.90
59067;DHT22;44854;50.838;4.438;2023-06-22T17:59:07;20.20;99.90
59067;DHT22;44854;50.838;4.438;2023-06-22T18:01:36;20.20;99.90
59067;DHT22;44854;50.838;4.438;2023-06-22T18:04:08;20.10;99.90
59067;DHT22;44854;50.838;4.438;2023-06-22T18:06:43;20.10;99.90
59067;DHT22;44854;50.838;4.438;2023-06-22T18:09:10;20.20;99.90
59067;DHT22;44854;50.838;4.438;2023-06-22T18:14:07;20.20;99.90
59067;DHT22;44854;50.838;4.438;2023-06-22T18:16:33;20.20;99.90
59067;DHT22;44854;50.838;4.438;2023-06-22T18:18:59;20.20;99.90
59067;DHT22;44854;50.838;4.438;2023-06-22T18:21:26;20.30;99.90
59067;DHT22;44854;50.838;4.438;2023-06-22T18:23:52;20.30;99.90
59067;DHT22;44854;50.838;4.438;2023-06-22T18:26:20;20.40;99.90
59067;DHT22;44854;50.838;4.438;2023-06-22T18:28:46;20.40;99.90
59067;DHT22;44854;50.838;4.438;2023-06-22T18:31:12;20.30;99.90
59067;DHT22;44854;50.838;4.438;2023-06-22T18:33:38;20.40;99.90
59067;DHT22;44854;50.838;4.438;2023-06-22T18:36:04;20.40;99.90
59067;DHT22;44854;50.838;4.438;2023-06-22T18:38:30;20.40;99.90
59067;DHT22;44854;50.838;4.438;2023-06-22T18:40:56;20.50;99.90
59067;DHT22;44854;50.838;4.438;2023-06-22T18:43:24;20.50;99.90
59067;DHT22;44854;50.838;4.438;2023-06-22T18:45:49;20.60;99.90
59067;DHT22;44854;50.838;4.438;2023-06-22T18:48:24;20.60;99.90
59067;DHT22;44854;50.838;4.438;2023-06-22T18:50:50;20.50;99.90
59067;DHT22;44854;50.838;4.438;2023-06-22T18:53:25;20.50;99.90
59067;DHT22;44854;50.838;4.438;2023-06-22T18:55:52;20.50;99.90
59067;DHT22;44854;50.838;4.438;2023-06-22T18:58:35;20.40;99.90
59067;DHT22;44854;50.838;4.438;2023-06-22T19:01:22;20.40;99.90
59067;DHT22;44854;50.838;4.438;2023-06-22T19:03:51;20.30;99.90
59067;DHT22;44854;50.838;4.438;2023-06-22T19:09:14;20.40;99.90
59067;DHT22;44854;50.838;4.438;2023-06-22T19:11:40;20.40;99.90
59067;DHT22;44854;50.838;4.438;2023-06-22T19:14:06;20.40;99.90
59067;DHT22;44854;50.838;4.438;2023-06-22T19:16:32;20.30;99.90
59067;DHT22;44854;50.838;4.438;2023-06-22T19:18:57;20.40;99.90
59067;DHT22;44854;50.838;4.438;2023-06-22T19:21:23;20.40;99.90
59067;DHT22;44854;50.838;4.438;2023-06-22T19:23:49;20.30;99.90
59067;DHT22;44854;50.838;4.438;2023-06-22T19:26:16;20.40;99.90
59067;DHT22;44854;50.838;4.438;2023-06-22T19:31:10;20.60;99.90
59067;DHT22;44854;50.838;4.438;2023-06-22T19:33:36;20.70;99.90